Time;durP1;ratioP1;P1;durP2;ratioP2;P2;SDS_P1;SDS_P2;PMS_P1;PMS_P2;Temp;Humidity;BMP_temperature;BMP_pressure;BME280_temperature;BME280_humidity;BME280_pressure;Samples;Min_cycle;Max_cycle;Signal;HPM_P1;HPM_P2
2023/09/12 00:01:17;;;;;;;68.60;62.67;;;;;;;20.78;100.00;101206.97;4965091;28;20439;-42
2023/09/12 00:03:44;;;;;;;69.40;62.73;;;;;;;20.77;100.00;101207.22;4973170;28;20442;-40
2023/09/12 00:06:12;;;;;;;66.57;60.50;;;;;;;20.74;100.00;101210.44;4964308;28;20439;-43
2023/09/12 00:08:41;;;;;;;67.03;60.80;;;;;;;20.72;100.00;101215.28;4964181;28;20536;-44
2023/09/12 00:11:11;;;;;;;70.53;64.03;;;;;;;20.72;100.00;101209.88;4975820;28;21117;-42
2023/09/12 00:13:40;;;;;;;69.63;63.20;;;;;;;20.68;100.00;101220.41;4975879;28;20438;-41
2023/09/12 00:16:09;;;;;;;76.53;69.33;;;;;;;20.58;100.00;101212.13;4967770;28;20438;-40
2023/09/12 00:18:37;;;;;;;69.87;63.60;;;;;;;20.63;100.00;101222.22;5012043;23;21101;-43
2023/09/12 00:21:05;;;;;;;68.60;62.67;;;;;;;20.65;100.00;101226.31;4997223;28;20519;-42
2023/09/12 00:23:33;;;;;;;64.63;58.70;;;;;;;20.68;100.00;101230.41;5014674;28;20868;-44
2023/09/12 00:26:02;;;;;;;67.97;61.60;;;;;;;20.70;100.00;101231.78;5011244;28;20436;-42
2023/09/12 00:28:29;;;;;;;66.37;60.53;;;;;;;20.69;100.00;101232.06;4979513;28;20532;-44
2023/09/12 00:30:57;;;;;;;63.57;57.93;;;;;;;20.65;100.00;101230.91;4984730;28;21005;-43
2023/09/12 00:33:25;;;;;;;62.83;57.70;;;;;;;20.66;100.00;101222.53;4994407;28;20448;-42
2023/09/12 00:35:52;;;;;;;70.67;63.87;;;;;;;20.66;100.00;101227.13;4994469;28;20445;-44
2023/09/12 00:38:20;;;;;;;69.73;63.30;;;;;;;20.68;100.00;101219.56;4985918;28;20503;-42
2023/09/12 00:40:48;;;;;;;68.77;62.10;;;;;;;20.67;100.00;101220.66;4977682;28;20517;-45
2023/09/12 00:43:17;;;;;;;69.97;62.80;;;;;;;20.64;100.00;101218.44;4990426;28;20442;-42
2023/09/12 00:45:46;;;;;;;72.87;65.50;;;;;;;20.58;100.00;101216.75;4982826;28;20480;-42
2023/09/12 00:48:15;;;;;;;73.00;65.50;;;;;;;20.56;100.00;101213.44;4985904;28;20453;-43
2023/09/12 00:50:44;;;;;;;71.60;64.00;;;;;;;20.55;100.00;101211.84;4993955;28;20484;-47
2023/09/12 00:53:12;;;;;;;71.20;64.30;;;;;;;20.53;100.00;101200.41;4986015;28;20452;-44
2023/09/12 00:55:46;;;;;;;76.40;69.00;;;;;;;20.49;100.00;101202.00;4993829;28;20441;-45
2023/09/12 00:58:14;;;;;;;70.73;64.20;;;;;;;20.49;100.00;101224.47;4989991;28;20458;-45
2023/09/12 01:00:44;;;;;;;68.83;62.60;;;;;;;20.48;100.00;101209.28;4981757;28;20558;-44
2023/09/12 01:03:12;;;;;;;64.20;58.57;;;;;;;20.50;100.00;101222.56;4977599;28;20798;-43
2023/09/12 01:05:42;;;;;;;71.67;65.20;;;;;;;20.48;100.00;101209.28;4985675;28;20442;-42
2023/09/12 01:08:10;;;;;;;74.00;67.23;;;;;;;20.51;100.00;101202.56;4993443;28;20464;-46
2023/09/12 01:10:38;;;;;;;73.80;67.00;;;;;;;20.52;100.00;101207.72;4986495;28;20467;-43
2023/09/12 01:13:06;;;;;;;63.73;57.93;;;;;;;20.56;100.00;101199.91;4973953;28;20863;-42
2023/09/12 01:15:34;;;;;;;76.40;69.50;;;;;;;20.57;100.00;101194.25;4982441;28;20529;-43
2023/09/12 01:18:04;;;;;;;66.77;61.07;;;;;;;20.58;100.00;101182.31;4973337;28;20469;-47
2023/09/12 01:20:35;;;;;;;64.97;59.80;;;;;;;20.59;100.00;101189.38;4973705;28;20470;-47
2023/09/12 01:23:22;;;;;;;63.17;57.70;;;;;;;20.58;100.00;101190.44;4975986;28;20917;-42
2023/09/12 01:26:06;;;;;;;69.93;63.30;;;;;;;20.55;100.00;101190.94;4985273;28;20446;-43
2023/09/12 01:28:42;;;;;;;63.97;58.57;;;;;;;20.58;100.00;101193.16;4973533;28;20455;-42
2023/09/12 01:31:10;;;;;;;68.03;61.87;;;;;;;20.56;100.00;101192.59;4973896;28;20976;-46
2023/09/12 01:33:38;;;;;;;70.70;64.53;;;;;;;20.55;100.00;101196.38;4974311;28;20513;-45
2023/09/12 01:36:06;;;;;;;78.53;71.33;;;;;;;20.55;100.00;101192.88;4976243;28;20435;-44
2023/09/12 01:38:34;;;;;;;79.10;71.50;;;;;;;20.51;100.00;101189.84;4992970;28;21016;-42
2023/09/12 01:41:02;;;;;;;80.60;72.97;;;;;;;20.50;100.00;101184.66;4990686;28;20469;-43
2023/09/12 01:43:32;;;;;;;88.33;78.50;;;;;;;20.48;100.00;101187.63;4987411;28;20524;-44
2023/09/12 01:46:02;;;;;;;77.47;70.13;;;;;;;20.46;100.00;101183.53;4991769;28;20443;-42
2023/09/12 01:48:35;;;;;;;87.43;79.33;;;;;;;20.46;100.00;101191.66;4973677;28;21004;-42
2023/09/12 01:51:04;;;;;;;77.70;70.80;;;;;;;20.46;100.00;101189.75;4980993;28;21141;-42
2023/09/12 01:53:34;;;;;;;79.30;72.30;;;;;;;20.46;100.00;101172.69;4987352;28;20860;-43
2023/09/12 01:56:01;;;;;;;76.13;69.60;;;;;;;20.42;100.00;101172.38;4975374;28;20529;-42
2023/09/12 01:58:29;;;;;;;79.20;71.43;;;;;;;20.44;100.00;101167.50;4973219;28;20825;-44
2023/09/12 02:00:57;;;;;;;78.60;72.20;;;;;;;20.40;100.00;101164.47;4980837;28;20477;-47
2023/09/12 02:03:26;;;;;;;82.87;75.23;;;;;;;20.40;100.00;101158.22;4981702;28;20474;-42
2023/09/12 02:05:54;;;;;;;81.37;74.30;;;;;;;20.43;100.00;101165.88;4973162;28;20830;-44
2023/09/12 02:08:22;;;;;;;74.37;68.37;;;;;;;20.47;100.00;101168.91;4977469;28;20460;-45
2023/09/12 02:10:49;;;;;;;78.40;71.43;;;;;;;20.48;100.00;101162.41;4984229;28;20539;-44
2023/09/12 02:13:17;;;;;;;68.63;62.83;;;;;;;20.50;100.00;101163.78;4981391;28;20446;-42
2023/09/12 02:15:45;;;;;;;78.90;71.97;;;;;;;20.49;100.00;101159.44;4988278;28;20528;-46
2023/09/12 02:18:13;;;;;;;73.90;67.50;;;;;;;20.50;100.00;101152.13;4989258;28;20462;-44
2023/09/12 02:20:45;;;;;;;73.43;66.83;;;;;;;20.52;100.00;101164.34;4972534;28;20480;-46
2023/09/12 02:23:13;;;;;;;71.63;65.40;;;;;;;20.53;100.00;101157.06;4976175;28;20433;-42
2023/09/12 02:25:40;;;;;;;77.13;70.50;;;;;;;20.50;100.00;101147.53;4992877;28;20532;-42
2023/09/12 02:28:08;;;;;;;85.87;77.70;;;;;;;20.49;100.00;101161.34;4973392;28;20497;-43
2023/09/12 02:30:39;;;;;;;85.70;77.90;;;;;;;20.46;100.00;101156.44;4978583;28;20473;-47
2023/09/12 02:33:06;;;;;;;83.17;76.13;;;;;;;20.43;100.00;101163.97;4981792;28;20438;-44
2023/09/12 02:35:34;;;;;;;91.73;83.30;;;;;;;20.41;100.00;101158.00;4978903;28;20960;-44
2023/09/12 02:38:04;;;;;;;82.83;75.63;;;;;;;20.41;100.00;101160.72;4991814;28;21156;-43
2023/09/12 02:40:31;;;;;;;81.97;75.20;;;;;;;20.42;100.00;101159.66;4991716;28;20474;-46
2023/09/12 02:42:59;;;;;;;78.50;71.97;;;;;;;20.43;100.00;101182.13;4992091;28;20444;-44
2023/09/12 02:45:27;;;;;;;81.07;73.53;;;;;;;20.45;100.00;101168.34;4983881;28;20528;-45
2023/09/12 02:47:54;;;;;;;83.70;76.43;;;;;;;20.46;100.00;101172.69;4991719;28;20468;-43
2023/09/12 02:50:22;;;;;;;73.07;67.03;;;;;;;20.47;100.00;101168.91;4979900;28;20463;-44
2023/09/12 02:52:50;;;;;;;74.50;68.73;;;;;;;20.47;100.00;101172.44;4980656;28;20437;-42
2023/09/12 02:55:19;;;;;;;72.70;67.00;;;;;;;20.48;100.00;101192.22;4992121;28;20842;-42
2023/09/12 02:57:46;;;;;;;80.23;73.20;;;;;;;20.47;100.00;101180.56;4984136;28;20830;-43
2023/09/12 03:00:14;;;;;;;86.33;79.20;;;;;;;20.47;100.00;101180.56;4971337;28;20465;-44
2023/09/12 03:02:42;;;;;;;74.40;68.70;;;;;;;20.46;100.00;101183.53;4987584;28;20437;-45
2023/09/12 03:05:10;;;;;;;77.77;71.43;;;;;;;20.43;100.00;101184.81;4991704;28;20452;-44
2023/09/12 03:07:38;;;;;;;81.37;74.43;;;;;;;20.41;100.00;101189.69;4985573;28;20938;-44
2023/09/12 03:10:06;;;;;;;79.43;73.43;;;;;;;20.39;100.00;101184.53;4989601;28;20492;-42
2023/09/12 03:12:36;;;;;;;84.27;77.50;;;;;;;20.35;100.00;101179.84;4986278;28;20890;-43
2023/09/12 03:15:04;;;;;;;84.60;77.67;;;;;;;20.34;100.00;101176.31;4981976;28;20441;-44
2023/09/12 03:17:36;;;;;;;84.20;77.27;;;;;;;20.32;100.00;101173.03;4991461;28;20472;-43
2023/09/12 03:20:06;;;;;;;88.60;81.10;;;;;;;20.30;100.00;101174.38;4973731;28;20462;-43
2023/09/12 03:22:37;;;;;;;83.80;77.03;;;;;;;20.27;100.00;101166.75;4980167;28;20588;-43
2023/09/12 03:25:05;;;;;;;91.13;83.80;;;;;;;20.26;100.00;101175.94;4971745;28;20936;-45
2023/09/12 03:27:34;;;;;;;88.03;81.77;;;;;;;20.25;100.00;101175.09;4978279;28;20524;-41
2023/09/12 03:30:03;;;;;;;92.93;85.23;;;;;;;20.21;100.00;101165.00;4972644;28;20546;-44
2023/09/12 03:32:31;;;;;;;92.63;85.83;;;;;;;20.19;100.00;101173.38;4984006;28;20778;-41
2023/09/12 03:34:59;;;;;;;95.80;87.70;;;;;;;20.19;100.00;101170.66;4991105;28;20898;-44
2023/09/12 03:37:27;;;;;;;90.07;82.13;;;;;;;20.17;100.00;101175.50;4991332;28;20508;-45
2023/09/12 03:39:55;;;;;;;90.77;83.50;;;;;;;20.16;100.00;101190.09;4983232;28;21027;-44
2023/09/12 03:42:22;;;;;;;90.10;83.17;;;;;;;20.14;100.00;101203.09;4983881;28;20559;-49
2023/09/12 03:45:00;;;;;;;101.90;93.57;;;;;;;20.11;100.00;101200.03;4983742;28;20451;-43
2023/09/12 03:47:27;;;;;;;89.90;82.60;;;;;;;20.08;100.00;101189.72;4991540;28;20568;-45
2023/09/12 03:49:55;;;;;;;103.30;94.10;;;;;;;20.05;100.00;101195.63;4990982;28;20457;-40
2023/09/12 03:52:23;;;;;;;102.40;92.53;;;;;;;20.02;100.00;101188.81;4984090;28;20441;-45
2023/09/12 03:54:50;;;;;;;92.60;85.23;;;;;;;20.00;100.00;101185.56;4983398;28;20531;-44
2023/09/12 03:57:18;;;;;;;95.70;87.87;;;;;;;20.01;100.00;101187.16;4990820;28;20512;-43
2023/09/12 03:59:47;;;;;;;97.57;89.93;;;;;;;20.01;100.00;101200.72;4984615;28;20513;-44
2023/09/12 04:02:16;;;;;;;100.93;92.37;;;;;;;20.00;100.00;101200.97;4980144;28;20483;-44
2023/09/12 04:04:44;;;;;;;96.80;88.97;;;;;;;19.98;100.00;101195.00;4972186;28;20443;-47
2023/09/12 04:07:12;;;;;;;91.17;84.17;;;;;;;19.95;100.00;101203.59;4982048;28;20488;-48
2023/09/12 04:09:40;;;;;;;98.27;89.90;;;;;;;19.96;100.00;101208.75;4983082;28;20493;-46
2023/09/12 04:12:08;;;;;;;93.20;85.97;;;;;;;19.98;100.00;101203.91;4990173;28;20445;-45
2023/09/12 04:14:36;;;;;;;97.97;89.50;;;;;;;19.97;100.00;101204.16;4977451;28;20542;-42
2023/09/12 04:17:04;;;;;;;96.47;88.13;;;;;;;19.95;100.00;101199.00;4981865;28;20461;-48
2023/09/12 04:19:37;;;;;;;96.73;88.17;;;;;;;19.95;100.00;101198.19;4985187;28;20802;-47
2023/09/12 04:22:05;;;;;;;95.40;86.70;;;;;;;19.93;100.00;101203.00;4982303;28;20472;-44
2023/09/12 04:24:33;;;;;;;91.03;83.80;;;;;;;19.95;100.00;101207.09;4980162;28;20442;-41
2023/09/12 04:27:01;;;;;;;90.33;82.57;;;;;;;19.94;100.00;101199.25;4973628;28;20525;-43
2023/09/12 04:29:29;;;;;;;84.87;77.70;;;;;;;19.95;100.00;101198.19;4971516;28;20869;-43
2023/09/12 04:31:59;;;;;;;90.67;82.80;;;;;;;19.95;100.00;101206.31;4979853;28;20477;-45
2023/09/12 04:34:27;;;;;;;90.60;82.50;;;;;;;19.93;100.00;101209.25;4991453;28;20533;-44
2023/09/12 04:36:56;;;;;;;96.50;88.87;;;;;;;19.95;100.00;101204.41;4991142;28;20442;-46
2023/09/12 04:39:23;;;;;;;93.90;85.77;;;;;;;19.96;100.00;101206.06;4974908;28;20473;-45
2023/09/12 04:41:51;;;;;;;88.93;81.80;;;;;;;19.96;100.00;101199.81;4990615;28;20479;-43
2023/09/12 04:44:19;;;;;;;90.00;82.83;;;;;;;19.96;100.00;101199.81;4994678;28;20441;-48
2023/09/12 04:46:47;;;;;;;93.33;85.60;;;;;;;19.95;100.00;101198.19;4994809;28;20568;-42
2023/09/12 04:49:14;;;;;;;88.17;81.67;;;;;;;19.92;100.00;101195.97;4994226;28;21003;-45
2023/09/12 04:51:43;;;;;;;99.60;91.10;;;;;;;19.93;100.00;101192.19;4980997;28;20435;-44
2023/09/12 04:54:12;;;;;;;98.00;89.10;;;;;;;19.92;100.00;101194.09;4991277;28;20448;-46
2023/09/12 04:56:40;;;;;;;92.37;84.67;;;;;;;19.91;100.00;101183.50;4988720;28;20443;-44
2023/09/12 04:59:07;;;;;;;98.10;89.63;;;;;;;19.90;100.00;101182.69;4976541;28;20462;-42
2023/09/12 05:01:35;;;;;;;91.50;83.50;;;;;;;19.91;100.00;101187.03;4988096;28;21112;-44
2023/09/12 05:04:03;;;;;;;88.50;81.50;;;;;;;19.90;100.00;101190.78;4994345;28;20441;-45
2023/09/12 05:06:31;;;;;;;96.37;88.63;;;;;;;19.92;100.00;101177.84;4986577;28;20511;-44
2023/09/12 05:08:59;;;;;;;89.20;82.27;;;;;;;19.96;100.00;101186.28;4985572;28;20559;-44
2023/09/12 05:11:28;;;;;;;96.70;87.50;;;;;;;20.00;100.00;101190.97;4974927;28;20443;-45
2023/09/12 05:13:56;;;;;;;97.53;89.77;;;;;;;20.04;100.00;101181.25;4975062;28;20926;-43
2023/09/12 05:16:24;;;;;;;84.63;78.10;;;;;;;20.06;100.00;101181.03;4986192;28;20779;-44
2023/09/12 05:18:51;;;;;;;83.47;77.10;;;;;;;20.09;100.00;101183.25;4978215;28;20524;-40
2023/09/12 05:21:19;;;;;;;82.00;75.17;;;;;;;20.10;100.00;101185.69;4985280;28;20537;-45
2023/09/12 05:23:47;;;;;;;81.30;75.00;;;;;;;20.12;100.00;101197.09;4993880;28;20469;-44
2023/09/12 05:26:15;;;;;;;87.00;80.23;;;;;;;20.15;100.00;101193.91;4986064;28;20477;-42
2023/09/12 05:28:44;;;;;;;84.23;77.43;;;;;;;20.15;100.00;101193.91;4979143;28;21040;-43
2023/09/12 05:31:12;;;;;;;88.90;81.47;;;;;;;20.16;100.00;101173.84;4984266;28;20437;-45
2023/09/12 05:33:40;;;;;;;81.53;75.40;;;;;;;20.20;100.00;101180.44;4980828;28;20457;-42
2023/09/12 05:36:07;;;;;;;86.10;79.30;;;;;;;20.22;100.00;101178.28;4975295;28;20445;-45
2023/09/12 05:38:35;;;;;;;80.53;74.70;;;;;;;20.25;100.00;101182.41;4993658;28;20817;-45
2023/09/12 05:41:03;;;;;;;85.93;79.10;;;;;;;20.30;100.00;101187.91;4992972;28;20489;-48
2023/09/12 05:43:31;;;;;;;90.60;82.60;;;;;;;20.30;100.00;101177.91;4982472;28;20474;-45
2023/09/12 05:46:00;;;;;;;86.17;78.67;;;;;;;20.34;100.00;101192.56;4990232;28;20892;-42
2023/09/12 05:48:27;;;;;;;80.50;73.73;;;;;;;20.35;100.00;101193.38;4973475;28;20850;-45
2023/09/12 05:50:55;;;;;;;75.57;69.10;;;;;;;20.42;100.00;101208.41;4980566;28;20464;-45
2023/09/12 05:53:23;;;;;;;75.10;69.30;;;;;;;20.46;100.00;101210.63;4977611;28;20440;-45
2023/09/12 05:55:50;;;;;;;77.33;70.43;;;;;;;20.45;100.00;101200.84;4993810;28;20831;-42
2023/09/12 05:58:18;;;;;;;74.33;68.50;;;;;;;20.48;100.00;101203.88;4993439;28;20461;-44
2023/09/12 06:00:47;;;;;;;78.67;72.57;;;;;;;20.52;100.00;101209.63;4993158;28;20469;-43
2023/09/12 06:03:17;;;;;;;79.70;72.97;;;;;;;20.55;100.00;101211.84;4993537;28;20473;-46
2023/09/12 06:05:45;;;;;;;78.87;73.10;;;;;;;20.57;100.00;101215.91;4993784;28;20492;-47
2023/09/12 06:08:13;;;;;;;71.43;66.13;;;;;;;20.60;100.00;101212.72;4993221;28;20453;-47
2023/09/12 06:10:40;;;;;;;72.47;66.80;;;;;;;20.62;100.00;101215.97;4992994;28;20453;-44
2023/09/12 06:13:08;;;;;;;71.77;66.17;;;;;;;20.64;100.00;101215.75;4993349;28;20909;-43
2023/09/12 06:15:41;;;;;;;69.60;63.50;;;;;;;20.68;100.00;101214.97;4993434;28;20524;-45
2023/09/12 06:18:08;;;;;;;69.77;63.77;;;;;;;20.77;100.00;101220.78;4992557;28;20987;-43
2023/09/12 06:20:38;;;;;;;73.60;67.37;;;;;;;20.82;100.00;101227.06;4992736;28;20984;-42
2023/09/12 06:23:05;;;;;;;69.63;63.80;;;;;;;20.82;100.00;101220.81;4993128;28;20473;-43
2023/09/12 06:25:33;;;;;;;70.77;64.60;;;;;;;20.85;100.00;101223.84;4993232;28;20444;-46
2023/09/12 06:28:01;;;;;;;69.60;63.90;;;;;;;20.92;100.00;101226.38;4992658;28;20460;-41
2023/09/12 06:30:29;;;;;;;70.03;64.33;;;;;;;20.97;100.00;101234.56;4984473;28;20469;-43
2023/09/12 06:32:57;;;;;;;68.87;62.63;;;;;;;21.01;100.00;101243.84;4985196;28;20445;-43
2023/09/12 06:35:24;;;;;;;64.10;58.37;;;;;;;21.04;100.00;101242.50;4993032;28;20488;-42
2023/09/12 06:37:56;;;;;;;65.93;60.93;;;;;;;21.04;100.00;101245.22;4992451;28;20462;-44
2023/09/12 06:40:23;;;;;;;67.53;62.13;;;;;;;21.01;100.00;101240.31;4984118;28;20968;-41
2023/09/12 06:42:51;;;;;;;64.60;59.07;;;;;;;21.02;100.00;101239.25;4986325;28;20506;-41
2023/09/12 06:45:19;;;;;;;65.53;60.43;;;;;;;21.03;100.00;101240.91;4989300;28;20503;-42
2023/09/12 06:47:47;;;;;;;71.27;65.00;;;;;;;21.06;100.00;101235.75;4986632;28;21051;-43
2023/09/12 06:50:14;;;;;;;70.47;64.40;;;;;;;21.13;100.00;101235.59;4992066;28;20459;-43
2023/09/12 06:52:43;;;;;;;70.63;65.03;;;;;;;21.20;100.00;101245.19;4992717;28;20434;-44
2023/09/12 06:55:12;;;;;;;70.33;64.63;;;;;;;21.21;100.00;101246.00;4991537;28;20532;-45
2023/09/12 06:57:40;;;;;;;65.43;60.20;;;;;;;21.22;100.00;101236.78;4980733;28;20461;-43
2023/09/12 07:00:09;;;;;;;70.67;64.67;;;;;;;21.17;100.00;101248.41;4988459;28;20992;-42
2023/09/12 07:02:37;;;;;;;64.30;59.10;;;;;;;21.19;100.00;101243.53;4992471;28;20442;-43
2023/09/12 07:05:06;;;;;;;70.63;64.30;;;;;;;21.15;100.00;101231.56;4992467;28;20438;-43
2023/09/12 07:07:34;;;;;;;69.80;63.90;;;;;;;21.15;100.00;101228.84;4983935;28;20555;-47
2023/09/12 07:10:01;;;;;;;66.83;60.87;;;;;;;21.14;100.00;101223.69;4975973;28;20611;-45
2023/09/12 07:12:50;;;;;;;65.80;60.73;;;;;;;21.17;100.00;101236.75;4992526;28;20456;-43
2023/09/12 07:15:18;;;;;;;66.03;60.97;;;;;;;21.11;100.00;101216.88;4990321;28;20979;-44
2023/09/12 07:17:46;;;;;;;68.73;63.20;;;;;;;21.18;100.00;101225.63;4985606;28;20461;-44
2023/09/12 07:20:15;;;;;;;67.13;61.43;;;;;;;21.27;100.00;101223.28;4982223;28;20455;-42
2023/09/12 07:22:44;;;;;;;63.40;58.70;;;;;;;21.36;100.00;101214.41;4980582;28;20474;-43
2023/09/12 07:25:14;;;;;;;62.13;57.00;;;;;;;21.58;100.00;101218.97;4989478;28;20437;-41
2023/09/12 07:27:41;;;;;;;60.57;55.77;;;;;;;21.66;100.00;101213.88;4986972;28;20451;-48
2023/09/12 07:30:11;;;;;;;57.03;53.00;;;;;;;21.90;100.00;101214.38;4971905;28;20469;-47
2023/09/12 07:32:39;;;;;;;54.73;50.70;;;;;;;22.15;100.00;101219.19;4972449;28;20442;-42
2023/09/12 07:35:08;;;;;;;55.93;51.27;;;;;;;22.40;100.00;101211.22;4972163;28;20461;-42
2023/09/12 07:37:35;;;;;;;52.77;48.97;;;;;;;22.49;100.00;101205.00;4972354;28;20549;-44
2023/09/12 07:40:09;;;;;;;58.33;53.40;;;;;;;22.64;100.00;101200.72;4972143;28;20458;-44
2023/09/12 07:42:36;;;;;;;59.20;54.50;;;;;;;22.81;100.00;101204.09;4980591;28;20442;-43
2023/09/12 07:45:05;;;;;;;56.07;51.90;;;;;;;22.96;100.00;101198.72;4972162;28;20470;-43
2023/09/12 07:47:34;;;;;;;60.93;56.23;;;;;;;23.08;100.00;101191.94;4972078;28;20497;-48
2023/09/12 07:50:02;;;;;;;53.03;49.33;;;;;;;23.22;100.00;101205.84;4972044;28;20484;-47
2023/09/12 07:52:30;;;;;;;56.00;51.20;;;;;;;23.27;100.00;101205.84;4972502;28;20867;-43
2023/09/12 07:55:00;;;;;;;53.37;49.47;;;;;;;23.35;100.00;101212.69;4972464;28;20518;-43
2023/09/12 07:57:29;;;;;;;56.23;52.17;;;;;;;23.32;100.00;101203.16;4979941;28;20547;-47
2023/09/12 07:59:57;;;;;;;50.87;47.33;;;;;;;23.32;100.00;101205.06;4986375;28;20469;-43
2023/09/12 08:02:24;;;;;;;58.53;54.10;;;;;;;23.39;100.00;101206.44;4981168;28;20474;-45
2023/09/12 08:04:54;;;;;;;47.13;44.23;;;;;;;23.49;100.00;101209.19;4980110;28;21057;-42
2023/09/12 08:07:22;;;;;;;51.73;47.97;;;;;;;23.61;100.00;101200.75;4979934;28;20461;-42
2023/09/12 08:09:52;;;;;;;50.10;46.20;;;;;;;23.56;100.00;101187.97;4985218;28;20468;-45
2023/09/12 08:12:21;;;;;;;49.43;45.70;;;;;;;23.58;100.00;101193.94;4992044;28;20437;-44
2023/09/12 08:14:49;;;;;;;47.07;43.77;;;;;;;23.60;100.00;101197.22;4995445;28;20528;-47
2023/09/12 08:17:17;;;;;;;47.80;44.30;;;;;;;23.71;100.00;101195.31;4986960;28;20482;-44
2023/09/12 08:19:45;;;;;;;44.13;41.43;;;;;;;23.71;100.00;101197.22;4994966;28;20515;-45
2023/09/12 08:22:14;;;;;;;44.03;40.43;;;;;;;23.69;100.00;101190.13;4986578;28;20920;-46
2023/09/12 08:24:42;;;;;;;46.87;43.83;;;;;;;23.81;100.00;101191.75;4988334;28;20916;-48
2023/09/12 08:27:09;;;;;;;41.13;38.60;;;;;;;23.93;100.00;101198.56;4990530;28;20567;-45
2023/09/12 08:29:38;;;;;;;41.47;38.77;;;;;;;24.07;100.00;101194.19;4978971;28;21023;-45
2023/09/12 08:32:06;;;;;;;43.77;40.40;;;;;;;24.12;100.00;101186.03;4995331;28;20445;-46
2023/09/12 08:34:33;;;;;;;41.47;38.60;;;;;;;24.31;100.00;101196.38;4995125;28;20528;-44
2023/09/12 08:37:01;;;;;;;39.63;37.23;;;;;;;24.43;100.00;101194.94;4995014;28;20488;-44
2023/09/12 08:39:42;;;;;;;39.27;36.80;;;;;;;24.55;100.00;101198.19;4991878;28;20465;-46
2023/09/12 08:42:13;;;;;;;40.43;37.53;;;;;;;24.54;100.00;101204.75;4991736;28;20429;-45
2023/09/12 08:44:42;;;;;;;37.20;34.83;;;;;;;24.62;100.00;101203.34;4987836;28;20955;-49
2023/09/12 08:47:12;;;;;;;37.23;34.83;;;;;;;24.61;100.00;101204.44;4994527;28;20457;-45
2023/09/12 08:49:42;;;;;;;38.47;35.97;;;;;;;24.69;100.00;101201.97;4990687;28;20485;-44
2023/09/12 08:52:09;;;;;;;38.00;35.53;;;;;;;24.82;100.00;101207.94;4991260;28;20434;-45
2023/09/12 08:54:38;;;;;;;35.10;32.87;;;;;;;24.82;100.00;101211.47;4975461;28;20478;-42
2023/09/12 08:57:07;;;;;;;34.53;32.67;;;;;;;24.91;100.00;101207.06;4975272;28;20564;-44
2023/09/12 08:59:36;;;;;;;35.77;33.63;;;;;;;24.92;100.00;101211.44;4982806;28;20492;-43
2023/09/12 09:02:08;;;;;;;33.73;31.73;;;;;;;24.93;100.00;101217.69;4990333;28;20524;-45
2023/09/12 09:04:37;;;;;;;35.80;33.70;;;;;;;25.07;100.00;101211.34;4994358;28;20556;-44
2023/09/12 09:07:05;;;;;;;32.80;30.90;;;;;;;25.18;100.00;101215.66;4994637;28;20497;-43
2023/09/12 09:09:34;;;;;;;33.37;31.17;;;;;;;25.25;100.00;101218.88;4994076;28;20837;-45
2023/09/12 09:12:08;;;;;;;32.50;30.30;;;;;;;25.24;100.00;101214.53;4994353;28;20441;-43
2023/09/12 09:14:35;;;;;;;31.77;29.93;;;;;;;25.26;100.00;101211.53;4994449;28;20468;-43
2023/09/12 09:17:03;;;;;;;33.07;31.07;;;;;;;25.22;100.00;101215.91;4994008;28;20463;-43
2023/09/12 09:19:42;;;;;;;33.17;30.77;;;;;;;25.24;100.00;101219.97;4993174;28;20481;-46
2023/09/12 09:22:10;;;;;;;32.67;30.90;;;;;;;25.27;100.00;101219.41;4994579;28;20525;-43
2023/09/12 09:24:38;;;;;;;31.93;30.30;;;;;;;25.25;100.00;101223.53;4994023;28;20919;-46
2023/09/12 09:27:07;;;;;;;35.87;33.77;;;;;;;25.24;100.00;101219.16;4993994;28;20548;-44
2023/09/12 09:29:47;;;;;;;33.10;31.20;;;;;;;25.07;100.00;101218.72;4993486;28;20874;-43
2023/09/12 09:32:21;;;;;;;34.47;32.53;;;;;;;24.92;100.00;101224.25;4985632;28;20465;-45
2023/09/12 09:34:49;;;;;;;32.30;30.50;;;;;;;24.81;100.00;101222.66;4982430;28;20493;-41
2023/09/12 09:37:19;;;;;;;33.13;31.13;;;;;;;24.74;100.00;101228.38;4982554;28;20984;-47
2023/09/12 09:39:52;;;;;;;34.60;32.40;;;;;;;24.52;100.00;101225.22;4981099;28;20462;-44
2023/09/12 09:42:21;;;;;;;38.47;35.87;;;;;;;24.44;100.00;101221.13;4975094;28;20862;-44
2023/09/12 09:44:49;;;;;;;35.83;33.53;;;;;;;24.29;100.00;101233.97;4993924;28;20480;-44
2023/09/12 09:47:19;;;;;;;36.60;34.17;;;;;;;24.21;100.00;101228.00;4985260;28;20461;-41
2023/09/12 09:49:47;;;;;;;34.07;32.03;;;;;;;24.21;100.00;101233.44;4993242;28;20564;-45
2023/09/12 09:52:15;;;;;;;37.57;35.10;;;;;;;24.21;100.00;101235.34;4985422;28;20943;-45
2023/09/12 09:54:45;;;;;;;34.10;32.00;;;;;;;24.26;100.00;101226.34;4989545;28;20445;-46
2023/09/12 09:57:13;;;;;;;34.70;32.43;;;;;;;24.19;100.00;101232.09;4989785;28;20461;-42
2023/09/12 09:59:43;;;;;;;35.63;33.33;;;;;;;24.34;100.00;101236.69;4993024;28;20548;-45
2023/09/12 10:02:21;;;;;;;33.03;31.13;;;;;;;24.68;100.00;101233.03;4993429;28;20503;-43
2023/09/12 10:04:51;;;;;;;37.67;35.07;;;;;;;24.87;100.00;101229.75;4993636;28;20551;-43
2023/09/12 10:07:28;;;;;;;34.57;32.00;;;;;;;25.11;100.00;101215.16;4992936;28;20461;-46
2023/09/12 10:09:58;;;;;;;33.17;31.20;;;;;;;25.22;100.00;101216.72;4984816;28;20511;-44
2023/09/12 10:12:28;;;;;;;30.70;29.00;;;;;;;25.50;100.00;101223.41;4993205;28;20524;-42
2023/09/12 10:14:59;;;;;;;34.30;32.17;;;;;;;25.56;100.00;101230.47;4993172;28;20434;-43
2023/09/12 10:17:32;;;;;;;35.40;33.00;;;;;;;25.26;100.00;101222.44;4975034;28;20554;-44
2023/09/12 10:20:05;;;;;;;32.53;30.40;;;;;;;25.11;100.00;101228.81;4981690;28;20513;-41
2023/09/12 10:22:37;;;;;;;32.10;30.27;;;;;;;25.16;100.00;101244.31;4991988;28;20442;-43
2023/09/12 10:25:07;;;;;;;29.57;27.80;;;;;;;25.33;100.00;101242.84;4993176;28;20831;-45
2023/09/12 10:27:35;;;;;;;27.37;25.93;;;;;;;25.44;100.00;101251.81;4992593;28;20492;-42
2023/09/12 10:30:06;;;;;;;25.80;24.60;;;;;;;25.66;100.00;101241.28;4986315;28;20462;-41
2023/09/12 10:32:35;;;;;;;26.23;24.83;;;;;;;25.77;100.00;101233.84;4992079;28;20496;-42
2023/09/12 10:35:03;;;;;;;25.43;23.90;;;;;;;25.96;100.00;101240.22;4992251;28;20922;-43
2023/09/12 10:37:35;;;;;;;25.80;24.27;;;;;;;25.96;100.00;101245.69;4992546;28;20461;-41
2023/09/12 10:40:08;;;;;;;22.00;20.60;;;;;;;26.35;100.00;101243.72;4992475;28;20813;-44
2023/09/12 10:42:37;;;;;;;19.40;18.40;;;;;;;26.47;100.00;101243.31;4984591;28;20873;-44
2023/09/12 10:45:08;;;;;;;19.37;18.27;;;;;;;26.66;100.00;101236.00;4992926;28;20536;-44
2023/09/12 10:47:36;;;;;;;16.37;15.43;;;;;;;26.60;100.00;101234.44;4984432;28;20457;-44
2023/09/12 10:50:05;;;;;;;15.90;14.80;;;;;;;26.51;100.00;101238.09;4986270;28;20462;-48
2023/09/12 10:52:35;;;;;;;16.73;15.70;;;;;;;26.48;100.00;101242.22;4975165;28;20894;-42
2023/09/12 10:55:05;;;;;;;15.13;14.13;;;;;;;26.34;100.00;101244.81;4986463;28;20869;-43
2023/09/12 10:57:34;;;;;;;16.80;15.67;;;;;;;26.51;100.00;101238.91;4982704;28;21028;-45
2023/09/12 11:00:14;;;;;;;14.67;13.77;;;;;;;26.45;100.00;101234.59;4985932;28;20469;-46
2023/09/12 11:02:43;;;;;;;15.93;14.97;;;;;;;26.50;100.00;101240.00;4992048;28;20921;-44
2023/09/12 11:05:52;;;;;;;15.57;14.57;;;;;;;26.67;100.00;101250.50;4992355;28;20896;-47
2023/09/12 11:08:20;;;;;;;14.63;13.70;;;;;;;26.77;100.00;101239.41;4983746;28;20892;-44
2023/09/12 11:11:17;;;;;;;14.53;13.40;;;;;;;26.88;100.00;101230.03;4972520;28;20534;-46